sensor_id;sensor_type;location;lat;lon;timestamp;pressure;altitude;pressure_sealevel;temperature;humidity
78665;BME280;67981;51.022;-2.870;2024-03-06T00:01:53;101250.28;;;2.17;100.00
78665;BME280;67981;51.022;-2.870;2024-03-06T00:04:19;101250.88;;;2.26;100.00
78665;BME280;67981;51.022;-2.870;2024-03-06T00:06:44;101262.16;;;2.29;100.00
78665;BME280;67981;51.022;-2.870;2024-03-06T00:09:10;101261.50;;;2.32;100.00
78665;BME280;67981;51.022;-2.870;2024-03-06T00:11:35;101258.41;;;2.24;100.00
78665;BME280;67981;51.022;-2.870;2024-03-06T00:14:03;101265.75;;;2.20;100.00
78665;BME280;67981;51.022;-2.870;2024-03-06T00:16:33;101266.66;;;2.20;100.00
78665;BME280;67981;51.022;-2.870;2024-03-06T00:18:59;101264.56;;;2.15;100.00
78665;BME280;67981;51.022;-2.870;2024-03-06T00:21:24;101260.91;;;2.11;100.00
78665;BME280;67981;51.022;-2.870;2024-03-06T00:23:50;101261.44;;;1.94;100.00
78665;BME280;67981;51.022;-2.870;2024-03-06T00:26:15;101268.97;;;1.93;100.00
78665;BME280;67981;51.022;-2.870;2024-03-06T00:28:41;101275.41;;;1.88;100.00
78665;BME280;67981;51.022;-2.870;2024-03-06T00:31:06;101278.38;;;1.82;100.00
78665;BME280;67981;51.022;-2.870;2024-03-06T00:33:32;101277.06;;;1.76;100.00
78665;BME280;67981;51.022;-2.870;2024-03-06T00:35:57;101286.81;;;1.81;100.00
78665;BME280;67981;51.022;-2.870;2024-03-06T00:38:22;101277.06;;;1.76;100.00
78665;BME280;67981;51.022;-2.870;2024-03-06T00:40:48;101282.06;;;1.74;100.00
78665;BME280;67981;51.022;-2.870;2024-03-06T00:43:13;101290.34;;;1.83;100.00
78665;BME280;67981;51.022;-2.870;2024-03-06T00:45:39;101294.66;;;1.84;100.00
78665;BME280;67981;51.022;-2.870;2024-03-06T00:48:05;101299.38;;;2.03;100.00
78665;BME280;67981;51.022;-2.870;2024-03-06T00:50:30;101307.19;;;2.17;100.00
78665;BME280;67981;51.022;-2.870;2024-03-06T00:52:56;101305.78;;;2.09;100.00
78665;BME280;67981;51.022;-2.870;2024-03-06T00:55:21;101306.94;;;2.14;100.00
78665;BME280;67981;51.022;-2.870;2024-03-06T00:57:47;101310.59;;;2.18;100.00
78665;BME280;67981;51.022;-2.870;2024-03-06T01:00:12;101302.56;;;2.00;100.00
78665;BME280;67981;51.022;-2.870;2024-03-06T01:02:38;101307.78;;;1.90;100.00
78665;BME280;67981;51.022;-2.870;2024-03-06T01:05:04;101302.97;;;1.82;100.00
78665;BME280;67981;51.022;-2.870;2024-03-06T01:07:30;101304.31;;;1.65;100.00
78665;BME280;67981;51.022;-2.870;2024-03-06T01:09:56;101308.19;;;1.72;100.00
78665;BME280;67981;51.022;-2.870;2024-03-06T01:12:23;101285.63;;;1.53;100.00
78665;BME280;67981;51.022;-2.870;2024-03-06T01:14:49;101314.06;;;1.59;100.00
78665;BME280;67981;51.022;-2.870;2024-03-06T01:17:14;101306.13;;;1.43;100.00
78665;BME280;67981;51.022;-2.870;2024-03-06T01:19:40;101304.91;;;1.38;100.00
78665;BME280;67981;51.022;-2.870;2024-03-06T01:22:05;101301.38;;;1.24;100.00
78665;BME280;67981;51.022;-2.870;2024-03-06T01:24:31;101299.94;;;1.28;100.00
78665;BME280;67981;51.022;-2.870;2024-03-06T01:26:56;101299.28;;;1.19;100.00
78665;BME280;67981;51.022;-2.870;2024-03-06T01:29:21;101304.00;;;1.14;100.00
78665;BME280;67981;51.022;-2.870;2024-03-06T01:31:47;101296.63;;;1.06;100.00
78665;BME280;67981;51.022;-2.870;2024-03-06T01:34:12;101301.72;;;1.06;100.00
78665;BME280;67981;51.022;-2.870;2024-03-06T01:36:38;101303.34;;;1.05;100.00
78665;BME280;67981;51.022;-2.870;2024-03-06T01:39:03;101316.38;;;1.10;100.00
78665;BME280;67981;51.022;-2.870;2024-03-06T01:41:29;101309.53;;;0.97;100.00
78665;BME280;67981;51.022;-2.870;2024-03-06T01:43:54;101306.34;;;0.88;100.00
78665;BME280;67981;51.022;-2.870;2024-03-06T01:46:19;101293.81;;;0.80;100.00
78665;BME280;67981;51.022;-2.870;2024-03-06T01:48:45;101305.09;;;0.83;100.00
78665;BME280;67981;51.022;-2.870;2024-03-06T01:51:11;101301.47;;;0.91;100.00
78665;BME280;67981;51.022;-2.870;2024-03-06T01:53:37;101310.28;;;0.85;100.00
78665;BME280;67981;51.022;-2.870;2024-03-06T01:56:04;101308.97;;;0.78;100.00
78665;BME280;67981;51.022;-2.870;2024-03-06T01:58:31;101314.47;;;0.84;100.00
78665;BME280;67981;51.022;-2.870;2024-03-06T02:00:59;101314.06;;;0.90;100.00
78665;BME280;67981;51.022;-2.870;2024-03-06T02:03:24;101315.94;;;0.92;100.00
78665;BME280;67981;51.022;-2.870;2024-03-06T02:05:51;101314.81;;;0.77;100.00
78665;BME280;67981;51.022;-2.870;2024-03-06T02:08:18;101315.34;;;0.73;100.00
78665;BME280;67981;51.022;-2.870;2024-03-06T02:10:44;101314.38;;;0.83;100.00
78665;BME280;67981;51.022;-2.870;2024-03-06T02:13:10;101318.44;;;0.81;100.00
78665;BME280;67981;51.022;-2.870;2024-03-06T02:15:35;101317.09;;;0.74;100.00
78665;BME280;67981;51.022;-2.870;2024-03-06T02:18:05;101314.81;;;0.77;100.00
78665;BME280;67981;51.022;-2.870;2024-03-06T02:20:30;101314.25;;;0.81;100.00
78665;BME280;67981;51.022;-2.870;2024-03-06T02:22:56;101304.78;;;0.79;100.00
78665;BME280;67981;51.022;-2.870;2024-03-06T02:25:21;101304.41;;;0.74;100.00
78665;BME280;67981;51.022;-2.870;2024-03-06T02:27:46;101310.94;;;0.71;100.00
78665;BME280;67981;51.022;-2.870;2024-03-06T02:30:13;101304.72;;;0.56;100.00
78665;BME280;67981;51.022;-2.870;2024-03-06T02:32:39;101314.00;;;0.67;100.00
78665;BME280;67981;51.022;-2.870;2024-03-06T02:35:04;101311.91;;;0.73;100.00
78665;BME280;67981;51.022;-2.870;2024-03-06T02:37:33;101311.56;;;0.68;100.00
78665;BME280;67981;51.022;-2.870;2024-03-06T02:39:59;101308.94;;;0.67;100.00
78665;BME280;67981;51.022;-2.870;2024-03-06T02:42:25;101316.97;;;0.61;100.00
78665;BME280;67981;51.022;-2.870;2024-03-06T02:44:50;101307.03;;;0.53;100.00
78665;BME280;67981;51.022;-2.870;2024-03-06T02:47:16;101318.03;;;0.53;100.00
78665;BME280;67981;51.022;-2.870;2024-03-06T02:49:41;101297.50;;;0.50;100.00
78665;BME280;67981;51.022;-2.870;2024-03-06T02:52:06;101291.69;;;0.51;100.00
78665;BME280;67981;51.022;-2.870;2024-03-06T02:54:32;101287.19;;;0.37;100.00
78665;BME280;67981;51.022;-2.870;2024-03-06T02:56:57;101292.41;;;0.39;100.00
78665;BME280;67981;51.022;-2.870;2024-03-06T02:59:23;101286.34;;;0.37;100.00
78665;BME280;67981;51.022;-2.870;2024-03-06T03:01:49;101303.88;;;0.45;100.00
78665;BME280;67981;51.022;-2.870;2024-03-06T03:04:14;101299.81;;;0.47;100.00
78665;BME280;67981;51.022;-2.870;2024-03-06T03:06:40;101306.31;;;0.44;100.00
78665;BME280;67981;51.022;-2.870;2024-03-06T03:09:05;101302.91;;;0.43;100.00
78665;BME280;67981;51.022;-2.870;2024-03-06T03:11:30;101303.03;;;0.45;100.00
78665;BME280;67981;51.022;-2.870;2024-03-06T03:13:57;101297.09;;;0.56;100.00
78665;BME280;67981;51.022;-2.870;2024-03-06T03:16:22;101291.53;;;0.38;100.00
78665;BME280;67981;51.022;-2.870;2024-03-06T03:18:48;101307.88;;;0.42;100.00
78665;BME280;67981;51.022;-2.870;2024-03-06T03:21:14;101305.00;;;0.49;100.00
78665;BME280;67981;51.022;-2.870;2024-03-06T03:23:39;101313.53;;;0.49;100.00
78665;BME280;67981;51.022;-2.870;2024-03-06T03:26:06;101302.88;;;0.32;100.00
78665;BME280;67981;51.022;-2.870;2024-03-06T03:28:32;101308.56;;;0.29;100.00
78665;BME280;67981;51.022;-2.870;2024-03-06T03:30:58;101297.63;;;0.19;100.00
78665;BME280;67981;51.022;-2.870;2024-03-06T03:33:23;101293.91;;;0.25;100.00
78665;BME280;67981;51.022;-2.870;2024-03-06T03:35:49;101308.91;;;0.22;100.00
78665;BME280;67981;51.022;-2.870;2024-03-06T03:38:14;101303.03;;;0.23;100.00
78665;BME280;67981;51.022;-2.870;2024-03-06T03:40:40;101299.63;;;0.23;100.00
78665;BME280;67981;51.022;-2.870;2024-03-06T03:43:05;101307.78;;;0.19;100.00
78665;BME280;67981;51.022;-2.870;2024-03-06T03:45:34;101308.28;;;0.15;100.00
78665;BME280;67981;51.022;-2.870;2024-03-06T03:48:01;101312.16;;;0.10;100.00
78665;BME280;67981;51.022;-2.870;2024-03-06T03:50:28;101318.94;;;0.21;100.00
78665;BME280;67981;51.022;-2.870;2024-03-06T03:52:54;101312.06;;;0.20;100.00
78665;BME280;67981;51.022;-2.870;2024-03-06T03:55:20;101319.06;;;0.22;100.00
78665;BME280;67981;51.022;-2.870;2024-03-06T03:57:45;101318.94;;;0.21;100.00
78665;BME280;67981;51.022;-2.870;2024-03-06T04:00:12;101317.03;;;0.18;100.00
78665;BME280;67981;51.022;-2.870;2024-03-06T04:02:38;101321.34;;;-0.03;100.00
78665;BME280;67981;51.022;-2.870;2024-03-06T04:05:03;101323.31;;;-0.10;100.00
78665;BME280;67981;51.022;-2.870;2024-03-06T04:07:30;101314.69;;;-0.12;100.00
78665;BME280;67981;51.022;-2.870;2024-03-06T04:09:55;101323.31;;;-0.10;100.00
78665;BME280;67981;51.022;-2.870;2024-03-06T04:12:20;101334.97;;;-0.12;100.00
78665;BME280;67981;51.022;-2.870;2024-03-06T04:14:46;101323.69;;;-0.16;100.00
78665;BME280;67981;51.022;-2.870;2024-03-06T04:17:11;101328.38;;;-0.10;100.00
78665;BME280;67981;51.022;-2.870;2024-03-06T04:19:37;101337.47;;;-0.02;100.00
78665;BME280;67981;51.022;-2.870;2024-03-06T04:22:02;101332.03;;;-0.07;100.00
78665;BME280;67981;51.022;-2.870;2024-03-06T04:24:28;101336.09;;;-0.09;100.00
78665;BME280;67981;51.022;-2.870;2024-03-06T04:26:54;101337.56;;;-0.22;100.00
78665;BME280;67981;51.022;-2.870;2024-03-06T04:29:19;101338.34;;;-0.23;100.00
78665;BME280;67981;51.022;-2.870;2024-03-06T04:31:44;101333.66;;;-0.29;100.00
78665;BME280;67981;51.022;-2.870;2024-03-06T04:34:10;101327.31;;;-0.34;100.00
78665;BME280;67981;51.022;-2.870;2024-03-06T04:36:35;101339.63;;;-0.28;100.00
78665;BME280;67981;51.022;-2.870;2024-03-06T04:39:01;101344.69;;;-0.28;100.00
78665;BME280;67981;51.022;-2.870;2024-03-06T04:41:26;101341.56;;;-0.36;100.00
78665;BME280;67981;51.022;-2.870;2024-03-06T04:43:51;101344.44;;;-0.31;100.00
78665;BME280;67981;51.022;-2.870;2024-03-06T04:46:18;101334.06;;;-0.34;100.00
78665;BME280;67981;51.022;-2.870;2024-03-06T04:48:43;101348.38;;;-0.35;100.00
78665;BME280;67981;51.022;-2.870;2024-03-06T04:51:09;101343.09;;;-0.38;100.00
78665;BME280;67981;51.022;-2.870;2024-03-06T04:53:35;101348.25;;;-0.26;100.00
78665;BME280;67981;51.022;-2.870;2024-03-06T04:56:01;101345.47;;;-0.29;100.00
78665;BME280;67981;51.022;-2.870;2024-03-06T04:58:26;101339.50;;;-0.30;100.00
78665;BME280;67981;51.022;-2.870;2024-03-06T05:00:51;101351.69;;;-0.36;100.00
78665;BME280;67981;51.022;-2.870;2024-03-06T05:03:17;101347.69;;;-0.44;100.00
78665;BME280;67981;51.022;-2.870;2024-03-06T05:05:42;101342.75;;;-0.52;100.00
78665;BME280;67981;51.022;-2.870;2024-03-06T05:08:08;101357.75;;;-0.34;100.00
78665;BME280;67981;51.022;-2.870;2024-03-06T05:10:34;101353.69;;;-0.32;100.00
78665;BME280;67981;51.022;-2.870;2024-03-06T05:13:00;101358.16;;;-0.29;100.00
78665;BME280;67981;51.022;-2.870;2024-03-06T05:15:25;101362.44;;;-0.28;100.00
78665;BME280;67981;51.022;-2.870;2024-03-06T05:17:51;101363.69;;;-0.23;100.00
78665;BME280;67981;51.022;-2.870;2024-03-06T05:20:17;101368.53;;;-0.26;100.00
78665;BME280;67981;51.022;-2.870;2024-03-06T05:22:43;101383.19;;;-0.22;100.00
78665;BME280;67981;51.022;-2.870;2024-03-06T05:25:08;101378.00;;;-0.24;100.00
78665;BME280;67981;51.022;-2.870;2024-03-06T05:27:33;101368.66;;;-0.35;100.00
78665;BME280;67981;51.022;-2.870;2024-03-06T05:29:59;101371.09;;;-0.36;100.00
78665;BME280;67981;51.022;-2.870;2024-03-06T05:32:24;101369.19;;;-0.39;100.00
78665;BME280;67981;51.022;-2.870;2024-03-06T05:34:50;101361.38;;;-0.52;100.00
78665;BME280;67981;51.022;-2.870;2024-03-06T05:37:15;101370.50;;;-0.54;100.00
78665;BME280;67981;51.022;-2.870;2024-03-06T05:39:40;101366.72;;;-0.59;100.00
78665;BME280;67981;51.022;-2.870;2024-03-06T05:42:07;101368.13;;;-0.62;100.00
78665;BME280;67981;51.022;-2.870;2024-03-06T05:44:33;101369.97;;;-0.50;100.00
78665;BME280;67981;51.022;-2.870;2024-03-06T05:47:00;101361.91;;;-0.56;100.00
78665;BME280;67981;51.022;-2.870;2024-03-06T05:49:26;101368.34;;;-0.59;100.00
78665;BME280;67981;51.022;-2.870;2024-03-06T05:51:52;101358.75;;;-0.63;100.00
78665;BME280;67981;51.022;-2.870;2024-03-06T05:54:19;101369.50;;;-0.66;100.00
78665;BME280;67981;51.022;-2.870;2024-03-06T05:56:44;101366.34;;;-0.63;100.00
78665;BME280;67981;51.022;-2.870;2024-03-06T05:59:10;101371.13;;;-0.56;100.00
78665;BME280;67981;51.022;-2.870;2024-03-06T06:01:35;101363.06;;;-0.72;100.00
78665;BME280;67981;51.022;-2.870;2024-03-06T06:04:01;101376.50;;;-0.63;100.00
78665;BME280;67981;51.022;-2.870;2024-03-06T06:06:27;101374.59;;;-0.66;100.00
78665;BME280;67981;51.022;-2.870;2024-03-06T06:08:52;101378.91;;;-0.65;100.00
78665;BME280;67981;51.022;-2.870;2024-03-06T06:11:17;101375.38;;;-0.77;100.00
78665;BME280;67981;51.022;-2.870;2024-03-06T06:13:43;101373.38;;;-0.81;100.00
78665;BME280;67981;51.022;-2.870;2024-03-06T06:16:08;101383.22;;;-0.74;100.00
78665;BME280;67981;51.022;-2.870;2024-03-06T06:18:34;101386.28;;;-0.78;100.00
78665;BME280;67981;51.022;-2.870;2024-03-06T06:20:59;101393.72;;;-0.69;100.00
78665;BME280;67981;51.022;-2.870;2024-03-06T06:23:25;101400.94;;;-0.64;100.00
78665;BME280;67981;51.022;-2.870;2024-03-06T06:25:50;101398.28;;;-0.75;100.00
78665;BME280;67981;51.022;-2.870;2024-03-06T06:28:16;101402.34;;;-0.67;100.00
78665;BME280;67981;51.022;-2.870;2024-03-06T06:30:41;101406.75;;;-0.55;100.00
78665;BME280;67981;51.022;-2.870;2024-03-06T06:33:07;101414.97;;;-0.47;100.00
78665;BME280;67981;51.022;-2.870;2024-03-06T06:35:33;101414.31;;;-0.35;100.00
78665;BME280;67981;51.022;-2.870;2024-03-06T06:38:00;101417.69;;;-0.24;100.00
78665;BME280;67981;51.022;-2.870;2024-03-06T06:40:26;101416.78;;;-0.15;100.00
78665;BME280;67981;51.022;-2.870;2024-03-06T06:42:53;101424.88;;;-0.09;100.00
78665;BME280;67981;51.022;-2.870;2024-03-06T06:45:19;101427.91;;;-0.13;100.00
78665;BME280;67981;51.022;-2.870;2024-03-06T06:47:45;101429.97;;;-0.19;100.00
78665;BME280;67981;51.022;-2.870;2024-03-06T06:50:11;101439.53;;;-0.26;100.00
78665;BME280;67981;51.022;-2.870;2024-03-06T06:52:40;101431.81;;;-0.38;100.00
78665;BME280;67981;51.022;-2.870;2024-03-06T06:55:06;101437.91;;;-0.36;100.00
78665;BME280;67981;51.022;-2.870;2024-03-06T06:57:32;101438.16;;;-0.43;100.00
78665;BME280;67981;51.022;-2.870;2024-03-06T07:00:04;101427.00;;;-0.55;100.00
78665;BME280;67981;51.022;-2.870;2024-03-06T07:02:42;101441.19;;;-0.47;100.00
78665;BME280;67981;51.022;-2.870;2024-03-06T07:05:08;101428.19;;;-0.61;100.00
78665;BME280;67981;51.022;-2.870;2024-03-06T07:07:35;101446.44;;;-0.65;100.00
78665;BME280;67981;51.022;-2.870;2024-03-06T07:10:02;101438.84;;;-0.65;100.00
78665;BME280;67981;51.022;-2.870;2024-03-06T07:12:28;101441.59;;;-0.42;100.00
78665;BME280;67981;51.022;-2.870;2024-03-06T07:14:53;101449.94;;;-0.43;100.00
78665;BME280;67981;51.022;-2.870;2024-03-06T07:17:18;101438.66;;;-0.47;100.00
78665;BME280;67981;51.022;-2.870;2024-03-06T07:19:44;101450.59;;;-0.36;100.00
78665;BME280;67981;51.022;-2.870;2024-03-06T07:22:09;101464.00;;;-0.27;100.00
78665;BME280;67981;51.022;-2.870;2024-03-06T07:24:35;101457.63;;;-0.22;100.00
78665;BME280;67981;51.022;-2.870;2024-03-06T07:27:00;101460.19;;;-0.22;100.00
78665;BME280;67981;51.022;-2.870;2024-03-06T07:29:29;101469.16;;;-0.15;100.00
78665;BME280;67981;51.022;-2.870;2024-03-06T07:31:54;101470.81;;;-0.16;100.00
78665;BME280;67981;51.022;-2.870;2024-03-06T07:34:20;101471.03;;;-0.13;100.00
78665;BME280;67981;51.022;-2.870;2024-03-06T07:36:47;101469.13;;;-0.05;100.00
78665;BME280;67981;51.022;-2.870;2024-03-06T07:39:15;101467.78;;;0.10;100.00
78665;BME280;67981;51.022;-2.870;2024-03-06T07:41:41;101462.69;;;0.20;100.00
78665;BME280;67981;51.022;-2.870;2024-03-06T07:44:06;101469.59;;;0.33;100.00
78665;BME280;67981;51.022;-2.870;2024-03-06T07:46:32;101480.41;;;0.52;100.00
78665;BME280;67981;51.022;-2.870;2024-03-06T07:48:57;101484.22;;;0.57;100.00
78665;BME280;67981;51.022;-2.870;2024-03-06T07:51:23;101479.69;;;0.53;100.00
78665;BME280;67981;51.022;-2.870;2024-03-06T07:53:48;101485.50;;;0.52;100.00
78665;BME280;67981;51.022;-2.870;2024-03-06T07:56:15;101486.50;;;0.54;100.00
78665;BME280;67981;51.022;-2.870;2024-03-06T07:58:41;101478.06;;;0.65;100.00
78665;BME280;67981;51.022;-2.870;2024-03-06T08:01:06;101477.94;;;0.63;100.00
78665;BME280;67981;51.022;-2.870;2024-03-06T08:03:33;101481.28;;;0.62;100.00
78665;BME280;67981;51.022;-2.870;2024-03-06T08:05:59;101491.25;;;0.71;100.00
78665;BME280;67981;51.022;-2.870;2024-03-06T08:08:25;101485.19;;;0.69;100.00
78665;BME280;67981;51.022;-2.870;2024-03-06T08:10:50;101497.44;;;0.74;100.00
78665;BME280;67981;51.022;-2.870;2024-03-06T08:13:16;101496.63;;;0.85;100.00
78665;BME280;67981;51.022;-2.870;2024-03-06T08:15:41;101493.44;;;0.88;100.00
78665;BME280;67981;51.022;-2.870;2024-03-06T08:18:09;101490.50;;;0.93;100.00
78665;BME280;67981;51.022;-2.870;2024-03-06T08:20:34;101494.28;;;1.10;100.00
78665;BME280;67981;51.022;-2.870;2024-03-06T08:23:00;101492.75;;;1.12;100.00
78665;BME280;67981;51.022;-2.870;2024-03-06T08:25:25;101495.56;;;1.26;100.00
78665;BME280;67981;51.022;-2.870;2024-03-06T08:27:50;101479.31;;;1.24;100.00
78665;BME280;67981;51.022;-2.870;2024-03-06T08:30:16;101492.16;;;1.37;100.00
78665;BME280;67981;51.022;-2.870;2024-03-06T08:32:42;101488.97;;;1.40;100.00
78665;BME280;67981;51.022;-2.870;2024-03-06T08:35:10;101486.88;;;1.46;100.00
78665;BME280;67981;51.022;-2.870;2024-03-06T08:37:42;101493.22;;;1.51;100.00
78665;BME280;67981;51.022;-2.870;2024-03-06T08:40:08;101498.97;;;1.60;100.00
78665;BME280;67981;51.022;-2.870;2024-03-06T08:42:35;101485.13;;;1.57;100.00
78665;BME280;67981;51.022;-2.870;2024-03-06T08:45:02;101483.28;;;1.66;100.00
78665;BME280;67981;51.022;-2.870;2024-03-06T08:47:27;101488.50;;;1.79;100.00
78665;BME280;67981;51.022;-2.870;2024-03-06T08:49:53;101490.03;;;1.88;100.00
78665;BME280;67981;51.022;-2.870;2024-03-06T08:52:18;101486.72;;;2.01;100.00
78665;BME280;67981;51.022;-2.870;2024-03-06T08:54:44;101497.88;;;2.14;100.00
78665;BME280;67981;51.022;-2.870;2024-03-06T08:57:10;101499.19;;;2.21;100.00
78665;BME280;67981;51.022;-2.870;2024-03-06T08:59:36;101498.75;;;2.38;100.00
78665;BME280;67981;51.022;-2.870;2024-03-06T09:02:22;101501.28;;;2.49;100.00
78665;BME280;67981;51.022;-2.870;2024-03-06T09:04:47;101498.47;;;2.58;100.00
78665;BME280;67981;51.022;-2.870;2024-03-06T09:07:13;101498.03;;;2.63;100.00
78665;BME280;67981;51.022;-2.870;2024-03-06T09:09:40;101502.91;;;2.72;100.00
78665;BME280;67981;51.022;-2.870;2024-03-06T09:12:06;101488.22;;;2.81;100.00
78665;BME280;67981;51.022;-2.870;2024-03-06T09:14:36;101495.25;;;2.97;100.00
78665;BME280;67981;51.022;-2.870;2024-03-06T09:17:01;101509.41;;;3.05;100.00
78665;BME280;67981;51.022;-2.870;2024-03-06T09:19:28;101498.31;;;3.16;100.00
78665;BME280;67981;51.022;-2.870;2024-03-06T09:21:53;101502.72;;;3.18;100.00
78665;BME280;67981;51.022;-2.870;2024-03-06T09:24:23;101492.06;;;3.24;100.00
78665;BME280;67981;51.022;-2.870;2024-03-06T09:26:49;101501.50;;;3.38;100.00
78665;BME280;67981;51.022;-2.870;2024-03-06T09:29:15;101503.78;;;3.46;100.00
78665;BME280;67981;51.022;-2.870;2024-03-06T09:31:41;101493.41;;;3.56;100.00
78665;BME280;67981;51.022;-2.870;2024-03-06T09:34:07;101496.16;;;3.72;100.00
78665;BME280;67981;51.022;-2.870;2024-03-06T09:36:32;101488.59;;;3.74;100.00
78665;BME280;67981;51.022;-2.870;2024-03-06T09:38:58;101490.00;;;3.82;100.00
78665;BME280;67981;51.022;-2.870;2024-03-06T09:41:24;101503.38;;;3.91;100.00
78665;BME280;67981;51.022;-2.870;2024-03-06T09:43:50;101507.97;;;3.96;100.00
78665;BME280;67981;51.022;-2.870;2024-03-06T09:46:17;101501.03;;;4.07;100.00
78665;BME280;67981;51.022;-2.870;2024-03-06T09:48:47;101492.28;;;4.16;100.00
78665;BME280;67981;51.022;-2.870;2024-03-06T09:51:14;101498.66;;;4.23;100.00
78665;BME280;67981;51.022;-2.870;2024-03-06T09:53:40;101495.22;;;4.35;100.00
78665;BME280;67981;51.022;-2.870;2024-03-06T09:56:07;101501.09;;;4.48;100.00
78665;BME280;67981;51.022;-2.870;2024-03-06T09:58:34;101500.28;;;4.62;100.00
78665;BME280;67981;51.022;-2.870;2024-03-06T10:01:00;101499.97;;;4.70;100.00
78665;BME280;67981;51.022;-2.870;2024-03-06T10:03:28;101500.63;;;4.81;100.00
78665;BME280;67981;51.022;-2.870;2024-03-06T10:05:54;101502.69;;;4.86;100.00
78665;BME280;67981;51.022;-2.870;2024-03-06T10:08:21;101495.19;;;4.89;100.00
78665;BME280;67981;51.022;-2.870;2024-03-06T10:10:50;101496.81;;;5.02;100.00
78665;BME280;67981;51.022;-2.870;2024-03-06T10:13:23;101489.59;;;5.09;100.00
78665;BME280;67981;51.022;-2.870;2024-03-06T10:15:59;101491.84;;;5.18;100.00
78665;BME280;67981;51.022;-2.870;2024-03-06T10:18:30;101486.56;;;5.29;100.00
78665;BME280;67981;51.022;-2.870;2024-03-06T10:20:56;101498.00;;;5.49;100.00
78665;BME280;67981;51.022;-2.870;2024-03-06T10:23:22;101471.66;;;5.51;100.00
78665;BME280;67981;51.022;-2.870;2024-03-06T10:25:48;101486.53;;;5.71;100.00
78665;BME280;67981;51.022;-2.870;2024-03-06T10:28:18;101486.47;;;5.85;100.00
78665;BME280;67981;51.022;-2.870;2024-03-06T10:30:44;101474.91;;;5.91;100.00
78665;BME280;67981;51.022;-2.870;2024-03-06T10:33:14;101482.66;;;6.07;100.00
78665;BME280;67981;51.022;-2.870;2024-03-06T10:35:41;101473.97;;;6.20;100.00
78665;BME280;67981;51.022;-2.870;2024-03-06T10:38:08;101456.72;;;6.17;100.00
78665;BME280;67981;51.022;-2.870;2024-03-06T10:40:35;101454.75;;;6.28;100.00
78665;BME280;67981;51.022;-2.870;2024-03-06T10:43:02;101450.13;;;6.37;100.00
78665;BME280;67981;51.022;-2.870;2024-03-06T10:45:50;101448.00;;;6.44;100.00
78665;BME280;67981;51.022;-2.870;2024-03-06T10:48:19;101429.72;;;6.54;100.00
78665;BME280;67981;51.022;-2.870;2024-03-06T10:50:46;101432.66;;;6.76;100.00
78665;BME280;67981;51.022;-2.870;2024-03-06T10:53:16;101425.50;;;6.87;100.00
78665;BME280;67981;51.022;-2.870;2024-03-06T10:55:45;101416.28;;;6.90;100.00
78665;BME280;67981;51.022;-2.870;2024-03-06T10:58:11;101416.91;;;6.86;100.00
78665;BME280;67981;51.022;-2.870;2024-03-06T11:00:41;101400.31;;;6.96;100.00
78665;BME280;67981;51.022;-2.870;2024-03-06T11:03:09;101403.25;;;7.19;100.00
78665;BME280;67981;51.022;-2.870;2024-03-06T11:05:38;101397.97;;;7.16;100.00
78665;BME280;67981;51.022;-2.870;2024-03-06T11:08:10;101389.50;;;7.35;100.00
78665;BME280;67981;51.022;-2.870;2024-03-06T11:10:37;101392.59;;;7.46;100.00
78665;BME280;67981;51.022;-2.870;2024-03-06T11:13:08;101389.00;;;7.42;100.00
78665;BME280;67981;51.022;-2.870;2024-03-06T11:15:34;101370.47;;;7.32;100.00
78665;BME280;67981;51.022;-2.870;2024-03-06T11:23:31;101362.66;;;7.81;100.00
78665;BME280;67981;51.022;-2.870;2024-03-06T11:26:03;101358.69;;;7.88;100.00
78665;BME280;67981;51.022;-2.870;2024-03-06T11:28:38;101356.13;;;8.05;100.00
78665;BME280;67981;51.022;-2.870;2024-03-06T11:31:09;101344.44;;;7.94;100.00
78665;BME280;67981;51.022;-2.870;2024-03-06T11:33:47;101333.06;;;7.89;100.00
78665;BME280;67981;51.022;-2.870;2024-03-06T11:36:20;101333.22;;;7.92;100.00
78665;BME280;67981;51.022;-2.870;2024-03-06T11:38:48;101304.63;;;7.67;100.00
78665;BME280;67981;51.022;-2.870;2024-03-06T11:41:15;101314.97;;;7.69;100.00
78665;BME280;67981;51.022;-2.870;2024-03-06T11:43:44;101315.34;;;7.76;100.00
78665;BME280;67981;51.022;-2.870;2024-03-06T11:46:10;101325.69;;;7.78;100.00
78665;BME280;67981;51.022;-2.870;2024-03-06T11:48:38;101330.72;;;7.94;100.00
78665;BME280;67981;51.022;-2.870;2024-03-06T11:51:05;101324.59;;;8.09;100.00
78665;BME280;67981;51.022;-2.870;2024-03-06T11:53:33;101321.47;;;8.34;100.00
78665;BME280;67981;51.022;-2.870;2024-03-06T11:55:59;101310.78;;;8.63;100.00
78665;BME280;67981;51.022;-2.870;2024-03-06T11:58:24;101287.00;;;8.89;100.00
78665;BME280;67981;51.022;-2.870;2024-03-06T12:00:51;101267.19;;;9.07;100.00
78665;BME280;67981;51.022;-2.870;2024-03-06T12:03:18;101234.31;;;9.00;100.00
78665;BME280;67981;51.022;-2.870;2024-03-06T12:05:44;101220.16;;;9.11;100.00
78665;BME280;67981;51.022;-2.870;2024-03-06T12:08:11;101186.03;;;9.17;100.00
78665;BME280;67981;51.022;-2.870;2024-03-06T12:10:37;101150.59;;;9.32;100.00
78665;BME280;67981;51.022;-2.870;2024-03-06T12:13:04;101114.19;;;9.68;100.00
78665;BME280;67981;51.022;-2.870;2024-03-06T12:15:30;101059.06;;;10.12;100.00
78665;BME280;67981;51.022;-2.870;2024-03-06T12:17:56;101010.31;;;10.46;100.00
78665;BME280;67981;51.022;-2.870;2024-03-06T12:20:21;100932.94;;;10.20;100.00
78665;BME280;67981;51.022;-2.870;2024-03-06T12:22:54;100870.75;;;10.11;100.00
78665;BME280;67981;51.022;-2.870;2024-03-06T12:25:25;100811.03;;;9.97;100.00
78665;BME280;67981;51.022;-2.870;2024-03-06T12:27:52;100776.16;;;10.08;100.00
78665;BME280;67981;51.022;-2.870;2024-03-06T12:30:20;100728.88;;;10.08;100.00
78665;BME280;67981;51.022;-2.870;2024-03-06T12:32:59;100678.53;;;10.22;98.53
78665;BME280;67981;51.022;-2.870;2024-03-06T12:35:27;100660.50;;;10.54;97.43
78665;BME280;67981;51.022;-2.870;2024-03-06T12:37:53;100555.34;;;10.46;95.33
78665;BME280;67981;51.022;-2.870;2024-03-06T12:40:19;100516.59;;;10.43;94.42